sensor_id;sensor_type;location;lat;lon;timestamp;P1;durP1;ratioP1;P2;durP2;ratioP2
17727;SDS011;8984;49.268;12.302;2023-03-01T00:02:18;25.33;;;18.07;;
17727;SDS011;8984;49.268;12.302;2023-03-01T00:04:45;26.17;;;17.43;;
17727;SDS011;8984;49.268;12.302;2023-03-01T00:07:12;29.30;;;18.60;;
17727;SDS011;8984;49.268;12.302;2023-03-01T00:09:39;28.37;;;17.63;;
17727;SDS011;8984;49.268;12.302;2023-03-01T00:12:07;28.17;;;17.87;;
17727;SDS011;8984;49.268;12.302;2023-03-01T00:14:34;32.40;;;19.73;;
17727;SDS011;8984;49.268;12.302;2023-03-01T00:17:01;27.07;;;17.97;;
17727;SDS011;8984;49.268;12.302;2023-03-01T00:19:29;24.93;;;17.53;;
17727;SDS011;8984;49.268;12.302;2023-03-01T00:21:57;28.20;;;18.67;;
17727;SDS011;8984;49.268;12.302;2023-03-01T00:24:24;27.93;;;19.00;;
17727;SDS011;8984;49.268;12.302;2023-03-01T00:26:52;27.47;;;17.87;;
17727;SDS011;8984;49.268;12.302;2023-03-01T00:29:21;31.30;;;19.10;;
17727;SDS011;8984;49.268;12.302;2023-03-01T00:31:48;30.43;;;19.67;;
17727;SDS011;8984;49.268;12.302;2023-03-01T00:34:15;27.70;;;18.67;;
17727;SDS011;8984;49.268;12.302;2023-03-01T00:36:42;30.97;;;18.63;;
17727;SDS011;8984;49.268;12.302;2023-03-01T00:39:10;30.03;;;19.20;;
17727;SDS011;8984;49.268;12.302;2023-03-01T00:41:38;28.60;;;18.30;;
17727;SDS011;8984;49.268;12.302;2023-03-01T00:44:06;29.93;;;19.47;;
17727;SDS011;8984;49.268;12.302;2023-03-01T00:46:34;27.40;;;19.00;;
17727;SDS011;8984;49.268;12.302;2023-03-01T00:49:01;32.27;;;20.57;;
17727;SDS011;8984;49.268;12.302;2023-03-01T00:51:29;27.30;;;19.30;;
17727;SDS011;8984;49.268;12.302;2023-03-01T00:53:57;25.60;;;17.90;;
17727;SDS011;8984;49.268;12.302;2023-03-01T00:56:26;30.27;;;18.97;;
17727;SDS011;8984;49.268;12.302;2023-03-01T00:58:53;27.00;;;18.47;;
17727;SDS011;8984;49.268;12.302;2023-03-01T01:01:20;27.03;;;18.63;;
17727;SDS011;8984;49.268;12.302;2023-03-01T01:03:54;27.67;;;17.87;;
17727;SDS011;8984;49.268;12.302;2023-03-01T01:06:22;34.00;;;19.50;;
17727;SDS011;8984;49.268;12.302;2023-03-01T01:08:51;28.23;;;18.53;;
17727;SDS011;8984;49.268;12.302;2023-03-01T01:11:19;28.20;;;18.30;;
17727;SDS011;8984;49.268;12.302;2023-03-01T01:13:47;26.30;;;17.23;;
17727;SDS011;8984;49.268;12.302;2023-03-01T01:16:15;27.90;;;17.83;;
17727;SDS011;8984;49.268;12.302;2023-03-01T01:18:42;26.70;;;17.77;;
17727;SDS011;8984;49.268;12.302;2023-03-01T01:21:11;22.60;;;16.53;;
17727;SDS011;8984;49.268;12.302;2023-03-01T01:23:40;28.57;;;17.90;;
17727;SDS011;8984;49.268;12.302;2023-03-01T01:26:09;27.67;;;18.10;;
17727;SDS011;8984;49.268;12.302;2023-03-01T01:28:37;29.60;;;18.50;;
17727;SDS011;8984;49.268;12.302;2023-03-01T01:31:04;27.97;;;18.27;;
17727;SDS011;8984;49.268;12.302;2023-03-01T01:33:31;26.33;;;16.60;;
17727;SDS011;8984;49.268;12.302;2023-03-01T01:35:58;25.93;;;17.07;;
17727;SDS011;8984;49.268;12.302;2023-03-01T01:38:27;26.87;;;17.50;;
17727;SDS011;8984;49.268;12.302;2023-03-01T01:40:54;23.53;;;16.37;;
17727;SDS011;8984;49.268;12.302;2023-03-01T01:43:21;25.30;;;17.27;;
17727;SDS011;8984;49.268;12.302;2023-03-01T01:45:50;28.70;;;17.80;;
17727;SDS011;8984;49.268;12.302;2023-03-01T01:48:18;27.10;;;17.93;;
17727;SDS011;8984;49.268;12.302;2023-03-01T01:50:49;27.53;;;17.27;;
17727;SDS011;8984;49.268;12.302;2023-03-01T01:53:21;27.50;;;19.17;;
17727;SDS011;8984;49.268;12.302;2023-03-01T01:55:51;26.20;;;17.27;;
17727;SDS011;8984;49.268;12.302;2023-03-01T01:58:22;27.50;;;16.93;;
17727;SDS011;8984;49.268;12.302;2023-03-01T02:00:51;27.47;;;18.30;;
17727;SDS011;8984;49.268;12.302;2023-03-01T02:03:20;30.27;;;18.10;;
17727;SDS011;8984;49.268;12.302;2023-03-01T02:05:55;28.13;;;17.70;;
17727;SDS011;8984;49.268;12.302;2023-03-01T02:08:28;26.03;;;17.23;;
17727;SDS011;8984;49.268;12.302;2023-03-01T02:10:59;25.43;;;17.53;;
17727;SDS011;8984;49.268;12.302;2023-03-01T02:13:29;29.40;;;17.40;;
17727;SDS011;8984;49.268;12.302;2023-03-01T02:15:57;25.33;;;17.10;;
17727;SDS011;8984;49.268;12.302;2023-03-01T02:18:25;28.47;;;17.77;;
17727;SDS011;8984;49.268;12.302;2023-03-01T02:20:56;27.80;;;17.83;;
17727;SDS011;8984;49.268;12.302;2023-03-01T02:23:30;27.60;;;18.13;;
17727;SDS011;8984;49.268;12.302;2023-03-01T02:26:00;27.50;;;16.83;;
17727;SDS011;8984;49.268;12.302;2023-03-01T02:28:34;27.93;;;17.97;;
17727;SDS011;8984;49.268;12.302;2023-03-01T02:31:03;26.03;;;18.00;;
17727;SDS011;8984;49.268;12.302;2023-03-01T02:33:49;26.27;;;17.60;;
17727;SDS011;8984;49.268;12.302;2023-03-01T02:36:18;26.13;;;18.37;;
17727;SDS011;8984;49.268;12.302;2023-03-01T02:38:46;27.50;;;17.90;;
17727;SDS011;8984;49.268;12.302;2023-03-01T02:41:14;25.00;;;16.53;;
17727;SDS011;8984;49.268;12.302;2023-03-01T02:43:44;26.87;;;17.30;;
17727;SDS011;8984;49.268;12.302;2023-03-01T02:46:14;32.03;;;18.87;;
17727;SDS011;8984;49.268;12.302;2023-03-01T02:48:43;29.83;;;18.37;;
17727;SDS011;8984;49.268;12.302;2023-03-01T02:51:14;27.63;;;17.33;;
17727;SDS011;8984;49.268;12.302;2023-03-01T02:53:55;26.97;;;17.90;;
17727;SDS011;8984;49.268;12.302;2023-03-01T02:56:28;27.33;;;18.23;;
17727;SDS011;8984;49.268;12.302;2023-03-01T02:58:57;25.53;;;16.80;;
17727;SDS011;8984;49.268;12.302;2023-03-01T03:01:25;30.77;;;18.73;;
17727;SDS011;8984;49.268;12.302;2023-03-01T03:04:01;26.53;;;17.83;;
17727;SDS011;8984;49.268;12.302;2023-03-01T03:06:28;28.00;;;18.40;;
17727;SDS011;8984;49.268;12.302;2023-03-01T03:08:55;28.57;;;17.77;;
17727;SDS011;8984;49.268;12.302;2023-03-01T03:11:22;28.93;;;18.53;;
17727;SDS011;8984;49.268;12.302;2023-03-01T03:13:49;31.97;;;18.60;;
17727;SDS011;8984;49.268;12.302;2023-03-01T03:16:18;29.87;;;18.80;;
17727;SDS011;8984;49.268;12.302;2023-03-01T03:18:45;32.50;;;20.53;;
17727;SDS011;8984;49.268;12.302;2023-03-01T03:21:13;28.17;;;19.43;;
17727;SDS011;8984;49.268;12.302;2023-03-01T03:23:41;35.00;;;19.83;;
17727;SDS011;8984;49.268;12.302;2023-03-01T03:26:08;26.70;;;18.00;;
17727;SDS011;8984;49.268;12.302;2023-03-01T03:28:39;25.90;;;17.00;;
17727;SDS011;8984;49.268;12.302;2023-03-01T03:31:06;28.23;;;19.57;;
17727;SDS011;8984;49.268;12.302;2023-03-01T03:33:35;24.40;;;17.03;;
17727;SDS011;8984;49.268;12.302;2023-03-01T03:36:02;26.13;;;17.30;;
17727;SDS011;8984;49.268;12.302;2023-03-01T03:38:29;34.00;;;19.30;;
17727;SDS011;8984;49.268;12.302;2023-03-01T03:41:00;30.13;;;18.97;;
17727;SDS011;8984;49.268;12.302;2023-03-01T03:43:29;28.60;;;19.03;;
17727;SDS011;8984;49.268;12.302;2023-03-01T03:45:58;28.83;;;18.37;;
17727;SDS011;8984;49.268;12.302;2023-03-01T03:48:25;28.47;;;19.37;;
17727;SDS011;8984;49.268;12.302;2023-03-01T03:50:54;29.10;;;19.30;;
17727;SDS011;8984;49.268;12.302;2023-03-01T03:53:23;29.70;;;19.13;;
17727;SDS011;8984;49.268;12.302;2023-03-01T03:55:50;31.40;;;19.03;;
17727;SDS011;8984;49.268;12.302;2023-03-01T03:58:18;29.57;;;19.07;;
17727;SDS011;8984;49.268;12.302;2023-03-01T04:00:47;28.53;;;17.80;;
17727;SDS011;8984;49.268;12.302;2023-03-01T04:03:15;32.10;;;18.93;;
17727;SDS011;8984;49.268;12.302;2023-03-01T04:05:43;30.60;;;18.03;;
17727;SDS011;8984;49.268;12.302;2023-03-01T04:08:12;27.43;;;18.73;;
17727;SDS011;8984;49.268;12.302;2023-03-01T04:10:40;28.93;;;18.87;;
17727;SDS011;8984;49.268;12.302;2023-03-01T04:13:11;30.60;;;18.73;;
17727;SDS011;8984;49.268;12.302;2023-03-01T04:15:39;29.47;;;18.93;;
17727;SDS011;8984;49.268;12.302;2023-03-01T04:18:08;30.30;;;18.90;;
17727;SDS011;8984;49.268;12.302;2023-03-01T04:20:35;29.37;;;19.43;;
17727;SDS011;8984;49.268;12.302;2023-03-01T04:23:04;28.03;;;19.30;;
17727;SDS011;8984;49.268;12.302;2023-03-01T04:25:40;27.83;;;18.30;;
17727;SDS011;8984;49.268;12.302;2023-03-01T04:28:08;31.27;;;20.13;;
17727;SDS011;8984;49.268;12.302;2023-03-01T04:30:36;30.70;;;21.07;;
17727;SDS011;8984;49.268;12.302;2023-03-01T04:33:03;30.63;;;19.90;;
17727;SDS011;8984;49.268;12.302;2023-03-01T04:35:31;31.30;;;20.23;;
17727;SDS011;8984;49.268;12.302;2023-03-01T04:37:59;30.50;;;20.03;;
17727;SDS011;8984;49.268;12.302;2023-03-01T04:40:26;29.90;;;19.70;;
17727;SDS011;8984;49.268;12.302;2023-03-01T04:42:54;31.47;;;19.07;;
17727;SDS011;8984;49.268;12.302;2023-03-01T04:45:21;32.57;;;19.37;;
17727;SDS011;8984;49.268;12.302;2023-03-01T04:47:49;27.57;;;18.43;;
17727;SDS011;8984;49.268;12.302;2023-03-01T04:50:17;29.90;;;19.40;;
17727;SDS011;8984;49.268;12.302;2023-03-01T04:52:46;28.07;;;18.90;;
17727;SDS011;8984;49.268;12.302;2023-03-01T04:55:13;31.97;;;19.40;;
17727;SDS011;8984;49.268;12.302;2023-03-01T04:57:40;44.90;;;27.37;;
17727;SDS011;8984;49.268;12.302;2023-03-01T05:00:09;35.70;;;22.07;;
17727;SDS011;8984;49.268;12.302;2023-03-01T05:02:46;33.27;;;20.93;;
17727;SDS011;8984;49.268;12.302;2023-03-01T05:05:18;33.10;;;21.10;;
17727;SDS011;8984;49.268;12.302;2023-03-01T05:07:45;34.00;;;21.03;;
17727;SDS011;8984;49.268;12.302;2023-03-01T05:10:12;30.03;;;19.17;;
17727;SDS011;8984;49.268;12.302;2023-03-01T05:12:39;32.20;;;20.37;;
17727;SDS011;8984;49.268;12.302;2023-03-01T05:15:06;34.23;;;20.93;;
17727;SDS011;8984;49.268;12.302;2023-03-01T05:17:35;30.37;;;19.93;;
17727;SDS011;8984;49.268;12.302;2023-03-01T05:20:02;29.57;;;19.43;;
17727;SDS011;8984;49.268;12.302;2023-03-01T05:22:32;33.03;;;19.40;;
17727;SDS011;8984;49.268;12.302;2023-03-01T05:24:59;30.10;;;19.93;;
17727;SDS011;8984;49.268;12.302;2023-03-01T05:27:26;29.83;;;19.27;;
17727;SDS011;8984;49.268;12.302;2023-03-01T05:29:54;38.87;;;22.37;;
17727;SDS011;8984;49.268;12.302;2023-03-01T05:32:22;38.97;;;24.17;;
17727;SDS011;8984;49.268;12.302;2023-03-01T05:34:49;36.30;;;24.50;;
17727;SDS011;8984;49.268;12.302;2023-03-01T05:37:17;33.07;;;21.17;;
17727;SDS011;8984;49.268;12.302;2023-03-01T05:39:44;33.07;;;20.60;;
17727;SDS011;8984;49.268;12.302;2023-03-01T05:42:11;33.43;;;20.37;;
17727;SDS011;8984;49.268;12.302;2023-03-01T05:44:38;30.60;;;21.00;;
17727;SDS011;8984;49.268;12.302;2023-03-01T05:47:05;34.03;;;21.20;;
17727;SDS011;8984;49.268;12.302;2023-03-01T05:49:33;32.57;;;20.27;;
17727;SDS011;8984;49.268;12.302;2023-03-01T05:52:00;32.70;;;21.23;;
17727;SDS011;8984;49.268;12.302;2023-03-01T05:54:27;31.27;;;20.70;;
17727;SDS011;8984;49.268;12.302;2023-03-01T05:56:53;29.17;;;19.83;;
17727;SDS011;8984;49.268;12.302;2023-03-01T05:59:21;30.50;;;19.57;;
17727;SDS011;8984;49.268;12.302;2023-03-01T06:01:48;36.33;;;20.50;;
17727;SDS011;8984;49.268;12.302;2023-03-01T06:04:15;34.40;;;22.50;;
17727;SDS011;8984;49.268;12.302;2023-03-01T06:06:43;29.87;;;20.33;;
17727;SDS011;8984;49.268;12.302;2023-03-01T06:09:09;44.70;;;27.70;;
17727;SDS011;8984;49.268;12.302;2023-03-01T06:11:36;47.63;;;27.17;;
17727;SDS011;8984;49.268;12.302;2023-03-01T06:14:03;41.37;;;23.70;;
17727;SDS011;8984;49.268;12.302;2023-03-01T06:16:32;34.60;;;22.13;;
17727;SDS011;8984;49.268;12.302;2023-03-01T06:18:59;39.87;;;23.00;;
17727;SDS011;8984;49.268;12.302;2023-03-01T06:21:26;36.93;;;23.90;;
17727;SDS011;8984;49.268;12.302;2023-03-01T06:23:54;34.80;;;21.67;;
17727;SDS011;8984;49.268;12.302;2023-03-01T06:26:21;33.23;;;22.10;;
17727;SDS011;8984;49.268;12.302;2023-03-01T06:28:47;34.23;;;22.27;;
17727;SDS011;8984;49.268;12.302;2023-03-01T06:31:15;37.43;;;22.40;;
17727;SDS011;8984;49.268;12.302;2023-03-01T06:33:42;33.67;;;22.47;;
17727;SDS011;8984;49.268;12.302;2023-03-01T06:36:10;37.43;;;22.67;;
17727;SDS011;8984;49.268;12.302;2023-03-01T06:38:36;37.50;;;21.90;;
17727;SDS011;8984;49.268;12.302;2023-03-01T06:41:07;35.57;;;22.47;;
17727;SDS011;8984;49.268;12.302;2023-03-01T06:43:33;30.83;;;20.50;;
17727;SDS011;8984;49.268;12.302;2023-03-01T06:46:03;28.07;;;19.70;;
17727;SDS011;8984;49.268;12.302;2023-03-01T06:48:30;32.10;;;20.90;;
17727;SDS011;8984;49.268;12.302;2023-03-01T06:50:57;33.63;;;20.40;;
17727;SDS011;8984;49.268;12.302;2023-03-01T06:53:25;35.63;;;20.63;;
17727;SDS011;8984;49.268;12.302;2023-03-01T06:55:53;34.03;;;21.23;;
17727;SDS011;8984;49.268;12.302;2023-03-01T06:58:22;31.10;;;20.73;;
17727;SDS011;8984;49.268;12.302;2023-03-01T07:00:48;31.27;;;21.17;;
17727;SDS011;8984;49.268;12.302;2023-03-01T07:03:15;32.17;;;21.10;;
17727;SDS011;8984;49.268;12.302;2023-03-01T07:05:42;34.33;;;22.23;;
17727;SDS011;8984;49.268;12.302;2023-03-01T07:08:09;35.83;;;23.07;;
17727;SDS011;8984;49.268;12.302;2023-03-01T07:10:36;35.30;;;22.83;;
17727;SDS011;8984;49.268;12.302;2023-03-01T07:13:02;34.77;;;23.57;;
17727;SDS011;8984;49.268;12.302;2023-03-01T07:15:33;32.17;;;22.40;;
17727;SDS011;8984;49.268;12.302;2023-03-01T07:17:59;30.07;;;20.37;;
17727;SDS011;8984;49.268;12.302;2023-03-01T07:20:26;31.37;;;21.23;;
17727;SDS011;8984;49.268;12.302;2023-03-01T07:22:53;36.83;;;21.60;;
17727;SDS011;8984;49.268;12.302;2023-03-01T07:25:21;77.80;;;36.73;;
17727;SDS011;8984;49.268;12.302;2023-03-01T07:27:48;36.83;;;23.63;;
17727;SDS011;8984;49.268;12.302;2023-03-01T07:30:16;42.33;;;24.47;;
17727;SDS011;8984;49.268;12.302;2023-03-01T07:32:45;39.17;;;23.50;;
17727;SDS011;8984;49.268;12.302;2023-03-01T07:35:11;38.57;;;24.10;;
17727;SDS011;8984;49.268;12.302;2023-03-01T07:37:39;36.47;;;23.30;;
17727;SDS011;8984;49.268;12.302;2023-03-01T07:40:07;36.57;;;22.77;;
17727;SDS011;8984;49.268;12.302;2023-03-01T07:42:34;37.50;;;22.87;;
17727;SDS011;8984;49.268;12.302;2023-03-01T07:45:01;31.87;;;22.13;;
17727;SDS011;8984;49.268;12.302;2023-03-01T07:47:28;35.67;;;22.27;;
17727;SDS011;8984;49.268;12.302;2023-03-01T07:49:56;34.37;;;23.33;;
17727;SDS011;8984;49.268;12.302;2023-03-01T07:52:23;35.97;;;24.53;;
17727;SDS011;8984;49.268;12.302;2023-03-01T07:54:50;44.27;;;24.60;;
17727;SDS011;8984;49.268;12.302;2023-03-01T07:57:17;39.37;;;24.10;;
17727;SDS011;8984;49.268;12.302;2023-03-01T07:59:43;37.07;;;22.80;;
17727;SDS011;8984;49.268;12.302;2023-03-01T08:02:10;33.70;;;21.80;;
17727;SDS011;8984;49.268;12.302;2023-03-01T08:04:37;37.43;;;22.73;;
17727;SDS011;8984;49.268;12.302;2023-03-01T08:07:05;47.83;;;26.67;;
17727;SDS011;8984;49.268;12.302;2023-03-01T08:09:34;43.97;;;25.60;;
17727;SDS011;8984;49.268;12.302;2023-03-01T08:12:01;40.00;;;24.90;;
17727;SDS011;8984;49.268;12.302;2023-03-01T08:14:29;32.53;;;22.50;;
17727;SDS011;8984;49.268;12.302;2023-03-01T08:16:56;35.50;;;21.37;;
17727;SDS011;8984;49.268;12.302;2023-03-01T08:19:23;30.43;;;20.80;;
17727;SDS011;8984;49.268;12.302;2023-03-01T08:21:50;34.73;;;21.90;;
17727;SDS011;8984;49.268;12.302;2023-03-01T08:24:18;35.77;;;23.10;;
17727;SDS011;8984;49.268;12.302;2023-03-01T08:26:44;31.87;;;21.03;;
17727;SDS011;8984;49.268;12.302;2023-03-01T08:29:11;33.30;;;22.00;;
17727;SDS011;8984;49.268;12.302;2023-03-01T08:31:39;33.33;;;21.53;;
17727;SDS011;8984;49.268;12.302;2023-03-01T08:34:07;33.30;;;21.63;;
17727;SDS011;8984;49.268;12.302;2023-03-01T08:36:35;33.30;;;21.83;;
17727;SDS011;8984;49.268;12.302;2023-03-01T08:39:05;31.37;;;20.83;;
17727;SDS011;8984;49.268;12.302;2023-03-01T08:41:34;32.63;;;21.30;;
17727;SDS011;8984;49.268;12.302;2023-03-01T08:44:01;36.73;;;22.10;;
17727;SDS011;8984;49.268;12.302;2023-03-01T08:46:30;32.57;;;21.20;;
17727;SDS011;8984;49.268;12.302;2023-03-01T08:49:02;33.63;;;21.17;;
17727;SDS011;8984;49.268;12.302;2023-03-01T08:51:30;30.50;;;20.50;;
17727;SDS011;8984;49.268;12.302;2023-03-01T08:54:01;30.33;;;19.40;;
17727;SDS011;8984;49.268;12.302;2023-03-01T08:56:28;34.07;;;20.47;;
17727;SDS011;8984;49.268;12.302;2023-03-01T08:58:56;29.60;;;19.50;;
17727;SDS011;8984;49.268;12.302;2023-03-01T09:01:23;28.10;;;19.87;;
17727;SDS011;8984;49.268;12.302;2023-03-01T09:03:50;31.30;;;21.10;;
17727;SDS011;8984;49.268;12.302;2023-03-01T09:06:16;41.20;;;20.50;;
17727;SDS011;8984;49.268;12.302;2023-03-01T09:08:44;31.67;;;21.47;;
17727;SDS011;8984;49.268;12.302;2023-03-01T09:11:12;31.13;;;19.97;;
17727;SDS011;8984;49.268;12.302;2023-03-01T09:13:41;31.87;;;19.27;;
17727;SDS011;8984;49.268;12.302;2023-03-01T09:16:10;28.60;;;20.25;;
17727;SDS011;8984;49.268;12.302;2023-03-01T09:18:38;27.33;;;18.40;;
17727;SDS011;8984;49.268;12.302;2023-03-01T09:21:06;31.80;;;19.17;;
17727;SDS011;8984;49.268;12.302;2023-03-01T09:23:34;30.70;;;18.73;;
17727;SDS011;8984;49.268;12.302;2023-03-01T09:26:03;28.53;;;18.50;;
17727;SDS011;8984;49.268;12.302;2023-03-01T09:28:31;28.47;;;19.20;;
17727;SDS011;8984;49.268;12.302;2023-03-01T09:30:58;25.77;;;17.53;;
17727;SDS011;8984;49.268;12.302;2023-03-01T09:33:27;25.07;;;17.20;;
17727;SDS011;8984;49.268;12.302;2023-03-01T09:35:57;26.67;;;18.90;;
17727;SDS011;8984;49.268;12.302;2023-03-01T09:38:24;26.73;;;18.37;;
17727;SDS011;8984;49.268;12.302;2023-03-01T09:40:52;27.10;;;18.27;;
17727;SDS011;8984;49.268;12.302;2023-03-01T09:43:21;29.03;;;18.20;;
17727;SDS011;8984;49.268;12.302;2023-03-01T09:45:54;26.87;;;18.63;;
17727;SDS011;8984;49.268;12.302;2023-03-01T09:48:27;25.23;;;17.20;;
17727;SDS011;8984;49.268;12.302;2023-03-01T09:50:58;30.47;;;18.30;;
17727;SDS011;8984;49.268;12.302;2023-03-01T09:53:31;25.87;;;18.43;;
17727;SDS011;8984;49.268;12.302;2023-03-01T09:56:01;26.47;;;19.10;;
17727;SDS011;8984;49.268;12.302;2023-03-01T09:58:36;25.60;;;17.93;;
17727;SDS011;8984;49.268;12.302;2023-03-01T10:01:16;29.00;;;18.63;;
17727;SDS011;8984;49.268;12.302;2023-03-01T10:04:04;27.97;;;18.37;;
17727;SDS011;8984;49.268;12.302;2023-03-01T10:07:03;25.20;;;18.20;;
17727;SDS011;8984;49.268;12.302;2023-03-01T10:09:40;23.93;;;18.07;;
17727;SDS011;8984;49.268;12.302;2023-03-01T10:12:10;27.47;;;19.10;;
17727;SDS011;8984;49.268;12.302;2023-03-01T10:14:41;34.27;;;25.60;;
17727;SDS011;8984;49.268;12.302;2023-03-01T10:17:17;24.63;;;18.00;;
17727;SDS011;8984;49.268;12.302;2023-03-01T10:19:52;25.23;;;18.57;;
17727;SDS011;8984;49.268;12.302;2023-03-01T10:22:26;25.57;;;17.73;;
17727;SDS011;8984;49.268;12.302;2023-03-01T10:24:57;24.70;;;17.70;;
17727;SDS011;8984;49.268;12.302;2023-03-01T10:27:26;27.23;;;19.20;;
17727;SDS011;8984;49.268;12.302;2023-03-01T10:30:02;28.90;;;19.90;;
17727;SDS011;8984;49.268;12.302;2023-03-01T10:32:38;26.60;;;18.97;;
17727;SDS011;8984;49.268;12.302;2023-03-01T10:35:16;27.40;;;19.67;;
17727;SDS011;8984;49.268;12.302;2023-03-01T10:37:58;27.77;;;19.57;;
17727;SDS011;8984;49.268;12.302;2023-03-01T10:40:29;26.83;;;18.80;;
17727;SDS011;8984;49.268;12.302;2023-03-01T10:42:57;25.30;;;17.93;;
17727;SDS011;8984;49.268;12.302;2023-03-01T10:45:30;25.10;;;17.93;;
17727;SDS011;8984;49.268;12.302;2023-03-01T10:48:08;27.00;;;18.30;;
17727;SDS011;8984;49.268;12.302;2023-03-01T10:50:40;25.87;;;18.17;;
17727;SDS011;8984;49.268;12.302;2023-03-01T10:55:57;27.07;;;19.27;;
17727;SDS011;8984;49.268;12.302;2023-03-01T10:58:27;26.97;;;19.17;;
17727;SDS011;8984;49.268;12.302;2023-03-01T11:00:55;25.70;;;18.53;;
17727;SDS011;8984;49.268;12.302;2023-03-01T11:03:23;24.37;;;17.97;;
17727;SDS011;8984;49.268;12.302;2023-03-01T11:05:57;24.67;;;18.40;;
17727;SDS011;8984;49.268;12.302;2023-03-01T11:08:36;24.80;;;18.10;;
17727;SDS011;8984;49.268;12.302;2023-03-01T11:11:13;24.47;;;17.87;;
17727;SDS011;8984;49.268;12.302;2023-03-01T11:13:57;26.53;;;18.40;;
17727;SDS011;8984;49.268;12.302;2023-03-01T11:16:26;24.10;;;17.47;;
17727;SDS011;8984;49.268;12.302;2023-03-01T11:18:55;25.80;;;18.50;;
17727;SDS011;8984;49.268;12.302;2023-03-01T11:21:25;29.17;;;19.37;;
17727;SDS011;8984;49.268;12.302;2023-03-01T11:23:55;29.10;;;18.50;;
17727;SDS011;8984;49.268;12.302;2023-03-01T11:26:25;27.00;;;19.40;;
17727;SDS011;8984;49.268;12.302;2023-03-01T11:28:56;26.70;;;19.17;;
17727;SDS011;8984;49.268;12.302;2023-03-01T11:31:26;27.37;;;18.83;;
17727;SDS011;8984;49.268;12.302;2023-03-01T11:33:55;26.43;;;19.57;;
17727;SDS011;8984;49.268;12.302;2023-03-01T11:36:31;29.77;;;19.27;;
17727;SDS011;8984;49.268;12.302;2023-03-01T11:39:03;26.63;;;19.13;;
17727;SDS011;8984;49.268;12.302;2023-03-01T11:41:39;27.80;;;19.03;;
17727;SDS011;8984;49.268;12.302;2023-03-01T11:44:10;24.13;;;17.83;;
17727;SDS011;8984;49.268;12.302;2023-03-01T11:46:50;26.13;;;18.03;;
17727;SDS011;8984;49.268;12.302;2023-03-01T11:52:31;24.10;;;18.13;;
17727;SDS011;8984;49.268;12.302;2023-03-01T11:55:24;26.57;;;19.07;;
17727;SDS011;8984;49.268;12.302;2023-03-01T11:58:00;28.10;;;21.07;;
17727;SDS011;8984;49.268;12.302;2023-03-01T12:00:40;30.73;;;19.47;;
17727;SDS011;8984;49.268;12.302;2023-03-01T12:03:25;27.50;;;19.60;;
17727;SDS011;8984;49.268;12.302;2023-03-01T12:06:07;27.17;;;19.63;;
17727;SDS011;8984;49.268;12.302;2023-03-01T12:08:51;29.10;;;19.67;;
17727;SDS011;8984;49.268;12.302;2023-03-01T12:11:36;27.00;;;19.63;;
17727;SDS011;8984;49.268;12.302;2023-03-01T12:14:23;28.60;;;21.00;;
17727;SDS011;8984;49.268;12.302;2023-03-01T12:17:13;28.60;;;21.70;;
17727;SDS011;8984;49.268;12.302;2023-03-01T12:20:12;25.80;;;19.13;;
17727;SDS011;8984;49.268;12.302;2023-03-01T12:22:51;29.77;;;20.63;;
17727;SDS011;8984;49.268;12.302;2023-03-01T12:25:31;29.93;;;20.80;;
17727;SDS011;8984;49.268;12.302;2023-03-01T12:28:13;30.53;;;21.43;;
17727;SDS011;8984;49.268;12.302;2023-03-01T12:31:16;29.87;;;21.07;;
17727;SDS011;8984;49.268;12.302;2023-03-01T12:34:16;30.53;;;21.40;;
17727;SDS011;8984;49.268;12.302;2023-03-01T12:37:03;32.73;;;22.33;;
17727;SDS011;8984;49.268;12.302;2023-03-01T12:39:43;31.60;;;22.33;;
17727;SDS011;8984;49.268;12.302;2023-03-01T12:42:25;32.70;;;23.53;;
17727;SDS011;8984;49.268;12.302;2023-03-01T12:45:01;32.20;;;22.90;;
17727;SDS011;8984;49.268;12.302;2023-03-01T12:47:55;35.53;;;23.07;;
17727;SDS011;8984;49.268;12.302;2023-03-01T12:50:35;32.60;;;22.97;;
17727;SDS011;8984;49.268;12.302;2023-03-01T12:53:07;31.07;;;23.00;;
17727;SDS011;8984;49.268;12.302;2023-03-01T12:55:49;32.87;;;22.70;;
17727;SDS011;8984;49.268;12.302;2023-03-01T12:58:23;31.93;;;22.60;;
17727;SDS011;8984;49.268;12.302;2023-03-01T13:01:06;31.83;;;22.20;;
17727;SDS011;8984;49.268;12.302;2023-03-01T13:03:48;32.43;;;23.47;;
17727;SDS011;8984;49.268;12.302;2023-03-01T13:06:29;31.50;;;22.93;;
17727;SDS011;8984;49.268;12.302;2023-03-01T13:09:03;32.90;;;22.83;;
17727;SDS011;8984;49.268;12.302;2023-03-01T13:11:36;32.37;;;22.13;;
17727;SDS011;8984;49.268;12.302;2023-03-01T13:20:12;31.87;;;22.97;;
17727;SDS011;8984;49.268;12.302;2023-03-01T13:22:41;33.53;;;22.87;;
17727;SDS011;8984;49.268;12.302;2023-03-01T13:25:12;32.87;;;22.10;;
17727;SDS011;8984;49.268;12.302;2023-03-01T13:27:40;36.43;;;24.07;;
17727;SDS011;8984;49.268;12.302;2023-03-01T13:35:53;31.63;;;21.33;;
17727;SDS011;8984;49.268;12.302;2023-03-01T13:38:37;28.53;;;21.30;;
17727;SDS011;8984;49.268;12.302;2023-03-01T13:41:11;33.23;;;22.00;;
17727;SDS011;8984;49.268;12.302;2023-03-01T13:43:39;32.47;;;21.50;;
17727;SDS011;8984;49.268;12.302;2023-03-01T13:46:08;29.80;;;21.50;;
17727;SDS011;8984;49.268;12.302;2023-03-01T13:48:38;30.57;;;21.47;;
17727;SDS011;8984;49.268;12.302;2023-03-01T13:51:08;30.87;;;21.93;;
17727;SDS011;8984;49.268;12.302;2023-03-01T13:53:39;30.23;;;20.73;;
17727;SDS011;8984;49.268;12.302;2023-03-01T13:56:09;28.37;;;19.67;;
17727;SDS011;8984;49.268;12.302;2023-03-01T14:01:27;31.10;;;21.50;;
17727;SDS011;8984;49.268;12.302;2023-03-01T14:03:55;25.07;;;18.97;;
17727;SDS011;8984;49.268;12.302;2023-03-01T14:06:24;25.90;;;18.63;;
17727;SDS011;8984;49.268;12.302;2023-03-01T14:09:00;27.07;;;17.13;;
17727;SDS011;8984;49.268;12.302;2023-03-01T14:11:35;23.40;;;17.53;;
17727;SDS011;8984;49.268;12.302;2023-03-01T14:14:30;24.37;;;17.73;;
17727;SDS011;8984;49.268;12.302;2023-03-01T14:17:22;22.03;;;16.37;;
17727;SDS011;8984;49.268;12.302;2023-03-01T14:20:16;25.63;;;17.00;;
17727;SDS011;8984;49.268;12.302;2023-03-01T14:22:48;25.83;;;17.57;;
17727;SDS011;8984;49.268;12.302;2023-03-01T14:25:21;25.10;;;17.67;;
17727;SDS011;8984;49.268;12.302;2023-03-01T14:27:51;25.13;;;18.53;;
17727;SDS011;8984;49.268;12.302;2023-03-01T14:30:22;27.57;;;18.70;;
17727;SDS011;8984;49.268;12.302;2023-03-01T14:32:52;27.57;;;17.80;;
17727;SDS011;8984;49.268;12.302;2023-03-01T14:35:20;29.07;;;21.00;;
17727;SDS011;8984;49.268;12.302;2023-03-01T14:37:49;39.53;;;25.37;;
17727;SDS011;8984;49.268;12.302;2023-03-01T14:40:20;31.53;;;22.40;;
17727;SDS011;8984;49.268;12.302;2023-03-01T14:42:50;45.40;;;31.23;;
17727;SDS011;8984;49.268;12.302;2023-03-01T14:45:18;25.83;;;18.40;;
17727;SDS011;8984;49.268;12.302;2023-03-01T14:47:45;29.00;;;19.17;;
17727;SDS011;8984;49.268;12.302;2023-03-01T14:50:17;24.23;;;17.30;;
17727;SDS011;8984;49.268;12.302;2023-03-01T14:52:50;26.00;;;18.47;;
17727;SDS011;8984;49.268;12.302;2023-03-01T14:55:19;27.93;;;18.60;;
17727;SDS011;8984;49.268;12.302;2023-03-01T14:57:51;23.97;;;18.30;;
17727;SDS011;8984;49.268;12.302;2023-03-01T15:00:19;28.10;;;18.97;;
17727;SDS011;8984;49.268;12.302;2023-03-01T15:02:48;25.13;;;18.43;;